sensor_id;sensor_type;location;lat;lon;timestamp;temperature;humidity
1259;DHT22;619;51.472;6.628;2022-11-20T00:02:00;3.10;97.90
1259;DHT22;619;51.472;6.628;2022-11-20T00:04:28;3.30;97.30
1259;DHT22;619;51.472;6.628;2022-11-20T00:06:54;3.40;96.90
1259;DHT22;619;51.472;6.628;2022-11-20T00:09:19;3.50;96.50
1259;DHT22;619;51.472;6.628;2022-11-20T00:11:48;3.60;96.30
1259;DHT22;619;51.472;6.628;2022-11-20T00:14:15;3.70;95.90
1259;DHT22;619;51.472;6.628;2022-11-20T00:16:41;3.70;95.60
1259;DHT22;619;51.472;6.628;2022-11-20T00:19:07;3.80;95.30
1259;DHT22;619;51.472;6.628;2022-11-20T00:21:33;3.90;95.10
1259;DHT22;619;51.472;6.628;2022-11-20T00:23:58;3.90;94.80
1259;DHT22;619;51.472;6.628;2022-11-20T00:26:25;3.90;94.60
1259;DHT22;619;51.472;6.628;2022-11-20T00:28:56;4.00;94.40
1259;DHT22;619;51.472;6.628;2022-11-20T00:31:26;4.00;94.20
1259;DHT22;619;51.472;6.628;2022-11-20T00:33:55;4.00;94.00
1259;DHT22;619;51.472;6.628;2022-11-20T00:36:24;4.00;93.80
1259;DHT22;619;51.472;6.628;2022-11-20T00:38:57;4.00;93.70
1259;DHT22;619;51.472;6.628;2022-11-20T00:41:27;4.10;93.70
1259;DHT22;619;51.472;6.628;2022-11-20T00:43:56;4.10;93.70
1259;DHT22;619;51.472;6.628;2022-11-20T00:46:24;4.10;93.50
1259;DHT22;619;51.472;6.628;2022-11-20T00:48:50;4.10;93.50
1259;DHT22;619;51.472;6.628;2022-11-20T00:51:20;4.20;93.50
1259;DHT22;619;51.472;6.628;2022-11-20T00:53:46;4.20;93.40
1259;DHT22;619;51.472;6.628;2022-11-20T00:56:16;4.20;93.20
1259;DHT22;619;51.472;6.628;2022-11-20T00:58:47;4.20;93.10
1259;DHT22;619;51.472;6.628;2022-11-20T01:01:17;4.20;92.90
1259;DHT22;619;51.472;6.628;2022-11-20T01:03:45;4.20;92.80
1259;DHT22;619;51.472;6.628;2022-11-20T01:06:40;4.20;92.80
1259;DHT22;619;51.472;6.628;2022-11-20T01:09:09;4.20;92.80
1259;DHT22;619;51.472;6.628;2022-11-20T01:11:37;4.20;92.70
1259;DHT22;619;51.472;6.628;2022-11-20T01:14:04;4.10;92.60
1259;DHT22;619;51.472;6.628;2022-11-20T01:19:00;4.10;92.50
1259;DHT22;619;51.472;6.628;2022-11-20T01:23:55;4.10;92.50
1259;DHT22;619;51.472;6.628;2022-11-20T01:26:32;4.00;92.40
1259;DHT22;619;51.472;6.628;2022-11-20T01:28:59;4.00;92.40
1259;DHT22;619;51.472;6.628;2022-11-20T01:31:33;4.00;92.40
1259;DHT22;619;51.472;6.628;2022-11-20T01:34:02;4.00;92.40
1259;DHT22;619;51.472;6.628;2022-11-20T01:36:32;4.00;92.40
1259;DHT22;619;51.472;6.628;2022-11-20T01:39:06;4.00;92.40
1259;DHT22;619;51.472;6.628;2022-11-20T01:41:33;4.00;92.40
1259;DHT22;619;51.472;6.628;2022-11-20T01:44:20;3.90;92.40
1259;DHT22;619;51.472;6.628;2022-11-20T01:46:54;3.90;92.40
1259;DHT22;619;51.472;6.628;2022-11-20T01:52:03;3.90;92.50
1259;DHT22;619;51.472;6.628;2022-11-20T01:54:38;4.00;92.60
1259;DHT22;619;51.472;6.628;2022-11-20T01:57:06;4.00;92.70
1259;DHT22;619;51.472;6.628;2022-11-20T01:59:33;4.00;92.70
1259;DHT22;619;51.472;6.628;2022-11-20T02:02:03;4.00;92.90
1259;DHT22;619;51.472;6.628;2022-11-20T02:04:31;4.10;92.90
1259;DHT22;619;51.472;6.628;2022-11-20T02:07:01;4.20;93.00
1259;DHT22;619;51.472;6.628;2022-11-20T02:09:28;4.20;93.00
1259;DHT22;619;51.472;6.628;2022-11-20T02:11:56;4.30;93.00
1259;DHT22;619;51.472;6.628;2022-11-20T02:14:23;4.40;93.00
1259;DHT22;619;51.472;6.628;2022-11-20T02:16:52;4.50;93.10
1259;DHT22;619;51.472;6.628;2022-11-20T02:19:32;4.50;93.00
1259;DHT22;619;51.472;6.628;2022-11-20T02:24:37;4.70;93.00
1259;DHT22;619;51.472;6.628;2022-11-20T02:27:13;4.70;92.90
1259;DHT22;619;51.472;6.628;2022-11-20T02:32:23;4.80;92.90
1259;DHT22;619;51.472;6.628;2022-11-20T02:34:51;4.90;92.90
1259;DHT22;619;51.472;6.628;2022-11-20T02:37:20;4.90;92.90
1259;DHT22;619;51.472;6.628;2022-11-20T02:39:51;5.00;92.80
1259;DHT22;619;51.472;6.628;2022-11-20T02:42:18;5.00;92.80
1259;DHT22;619;51.472;6.628;2022-11-20T02:44:43;5.10;92.70
1259;DHT22;619;51.472;6.628;2022-11-20T02:47:09;5.10;92.70
1259;DHT22;619;51.472;6.628;2022-11-20T02:49:35;5.20;92.60
1259;DHT22;619;51.472;6.628;2022-11-20T02:52:03;5.20;92.50
1259;DHT22;619;51.472;6.628;2022-11-20T02:54:31;5.30;92.50
1259;DHT22;619;51.472;6.628;2022-11-20T02:56:58;5.30;92.40
1259;DHT22;619;51.472;6.628;2022-11-20T02:59:24;5.30;92.20
1259;DHT22;619;51.472;6.628;2022-11-20T03:01:52;5.40;92.20
1259;DHT22;619;51.472;6.628;2022-11-20T03:04:20;5.40;92.00
1259;DHT22;619;51.472;6.628;2022-11-20T03:06:48;5.40;92.00
1259;DHT22;619;51.472;6.628;2022-11-20T03:09:14;5.50;91.90
1259;DHT22;619;51.472;6.628;2022-11-20T03:11:41;5.50;91.90
1259;DHT22;619;51.472;6.628;2022-11-20T03:14:07;5.50;91.80
1259;DHT22;619;51.472;6.628;2022-11-20T03:16:33;5.50;91.70
1259;DHT22;619;51.472;6.628;2022-11-20T03:18:59;5.60;91.70
1259;DHT22;619;51.472;6.628;2022-11-20T03:21:27;5.60;91.60
1259;DHT22;619;51.472;6.628;2022-11-20T03:23:55;5.70;91.50
1259;DHT22;619;51.472;6.628;2022-11-20T03:26:25;5.70;91.50
1259;DHT22;619;51.472;6.628;2022-11-20T03:28:53;5.70;91.40
1259;DHT22;619;51.472;6.628;2022-11-20T03:31:25;5.70;91.30
1259;DHT22;619;51.472;6.628;2022-11-20T03:33:54;5.80;91.30
1259;DHT22;619;51.472;6.628;2022-11-20T03:36:23;5.80;91.20
1259;DHT22;619;51.472;6.628;2022-11-20T03:38:49;5.70;91.00
1259;DHT22;619;51.472;6.628;2022-11-20T03:41:19;5.70;91.10
1259;DHT22;619;51.472;6.628;2022-11-20T03:43:52;5.70;91.10
1259;DHT22;619;51.472;6.628;2022-11-20T03:46:20;5.70;91.10
1259;DHT22;619;51.472;6.628;2022-11-20T03:48:51;5.70;91.10
1259;DHT22;619;51.472;6.628;2022-11-20T03:51:19;5.70;91.10
1259;DHT22;619;51.472;6.628;2022-11-20T03:53:46;5.70;91.20
1259;DHT22;619;51.472;6.628;2022-11-20T03:56:16;5.70;91.20
1259;DHT22;619;51.472;6.628;2022-11-20T03:58:44;5.70;91.20
1259;DHT22;619;51.472;6.628;2022-11-20T04:01:15;5.70;91.30
1259;DHT22;619;51.472;6.628;2022-11-20T04:03:42;5.70;91.30
1259;DHT22;619;51.472;6.628;2022-11-20T04:06:15;5.80;91.30
1259;DHT22;619;51.472;6.628;2022-11-20T04:08:43;5.80;91.30
1259;DHT22;619;51.472;6.628;2022-11-20T04:11:27;5.80;91.20
1259;DHT22;619;51.472;6.628;2022-11-20T04:14:00;5.80;91.20
1259;DHT22;619;51.472;6.628;2022-11-20T04:16:29;5.80;91.20
1259;DHT22;619;51.472;6.628;2022-11-20T04:19:01;5.80;91.20
1259;DHT22;619;51.472;6.628;2022-11-20T04:21:28;5.80;91.20
1259;DHT22;619;51.472;6.628;2022-11-20T04:23:56;5.80;91.20
1259;DHT22;619;51.472;6.628;2022-11-20T04:26:27;5.80;91.10
1259;DHT22;619;51.472;6.628;2022-11-20T04:28:52;5.90;91.20
1259;DHT22;619;51.472;6.628;2022-11-20T04:31:24;5.90;91.20
1259;DHT22;619;51.472;6.628;2022-11-20T04:33:50;5.90;91.10
1259;DHT22;619;51.472;6.628;2022-11-20T04:36:24;5.90;91.00
1259;DHT22;619;51.472;6.628;2022-11-20T04:38:57;5.90;90.70
1259;DHT22;619;51.472;6.628;2022-11-20T04:41:26;5.80;90.70
1259;DHT22;619;51.472;6.628;2022-11-20T04:43:53;5.80;90.80
1259;DHT22;619;51.472;6.628;2022-11-20T04:46:27;5.80;90.90
1259;DHT22;619;51.472;6.628;2022-11-20T04:48:53;5.80;90.90
1259;DHT22;619;51.472;6.628;2022-11-20T04:51:19;5.80;90.90
1259;DHT22;619;51.472;6.628;2022-11-20T04:53:46;5.80;90.90
1259;DHT22;619;51.472;6.628;2022-11-20T04:56:12;5.80;90.90
1259;DHT22;619;51.472;6.628;2022-11-20T04:58:39;5.80;90.90
1259;DHT22;619;51.472;6.628;2022-11-20T05:01:23;5.90;91.00
1259;DHT22;619;51.472;6.628;2022-11-20T05:03:49;5.90;91.10
1259;DHT22;619;51.472;6.628;2022-11-20T05:06:21;5.90;91.00
1259;DHT22;619;51.472;6.628;2022-11-20T05:08:50;5.90;91.00
1259;DHT22;619;51.472;6.628;2022-11-20T05:11:19;5.80;91.30
1259;DHT22;619;51.472;6.628;2022-11-20T05:13:49;5.80;90.90
1259;DHT22;619;51.472;6.628;2022-11-20T05:16:19;5.70;90.90
1259;DHT22;619;51.472;6.628;2022-11-20T05:18:46;5.70;91.10
1259;DHT22;619;51.472;6.628;2022-11-20T05:21:17;5.80;91.20
1259;DHT22;619;51.472;6.628;2022-11-20T05:23:44;5.80;91.20
1259;DHT22;619;51.472;6.628;2022-11-20T05:26:17;5.80;91.20
1259;DHT22;619;51.472;6.628;2022-11-20T05:28:44;5.80;91.20
1259;DHT22;619;51.472;6.628;2022-11-20T05:31:30;5.80;91.30
1259;DHT22;619;51.472;6.628;2022-11-20T05:33:56;5.80;91.40
1259;DHT22;619;51.472;6.628;2022-11-20T05:36:22;5.90;91.40
1259;DHT22;619;51.472;6.628;2022-11-20T05:38:48;5.90;91.40
1259;DHT22;619;51.472;6.628;2022-11-20T05:41:16;5.90;91.50
1259;DHT22;619;51.472;6.628;2022-11-20T05:43:44;6.00;91.50
1259;DHT22;619;51.472;6.628;2022-11-20T05:46:14;6.00;91.40
1259;DHT22;619;51.472;6.628;2022-11-20T05:48:40;6.10;91.40
1259;DHT22;619;51.472;6.628;2022-11-20T05:51:08;6.10;91.40
1259;DHT22;619;51.472;6.628;2022-11-20T05:53:34;6.10;91.40
1259;DHT22;619;51.472;6.628;2022-11-20T05:56:29;6.20;91.30
1259;DHT22;619;51.472;6.628;2022-11-20T05:58:56;6.20;91.40
1259;DHT22;619;51.472;6.628;2022-11-20T06:01:26;6.20;91.30
1259;DHT22;619;51.472;6.628;2022-11-20T06:03:54;6.20;91.30
1259;DHT22;619;51.472;6.628;2022-11-20T06:06:21;6.20;91.30
1259;DHT22;619;51.472;6.628;2022-11-20T06:08:47;6.20;91.30
1259;DHT22;619;51.472;6.628;2022-11-20T06:11:16;6.20;91.30
1259;DHT22;619;51.472;6.628;2022-11-20T06:13:45;6.20;91.30
1259;DHT22;619;51.472;6.628;2022-11-20T06:16:12;6.30;91.30
1259;DHT22;619;51.472;6.628;2022-11-20T06:18:38;6.30;91.40
1259;DHT22;619;51.472;6.628;2022-11-20T06:21:10;6.30;91.40
1259;DHT22;619;51.472;6.628;2022-11-20T06:26:06;6.30;91.40
1259;DHT22;619;51.472;6.628;2022-11-20T06:28:32;6.30;91.40
1259;DHT22;619;51.472;6.628;2022-11-20T06:31:00;6.30;91.30
1259;DHT22;619;51.472;6.628;2022-11-20T06:33:31;6.20;91.30
1259;DHT22;619;51.472;6.628;2022-11-20T06:36:03;6.20;91.30
1259;DHT22;619;51.472;6.628;2022-11-20T06:38:29;6.20;91.30
1259;DHT22;619;51.472;6.628;2022-11-20T06:40:57;6.10;91.30
1259;DHT22;619;51.472;6.628;2022-11-20T06:43:23;6.20;91.40
1259;DHT22;619;51.472;6.628;2022-11-20T06:45:53;6.20;91.50
1259;DHT22;619;51.472;6.628;2022-11-20T06:48:22;6.10;91.50
1259;DHT22;619;51.472;6.628;2022-11-20T06:50:48;6.20;91.60
1259;DHT22;619;51.472;6.628;2022-11-20T06:53:13;6.20;91.70
1259;DHT22;619;51.472;6.628;2022-11-20T06:55:43;6.20;91.80
1259;DHT22;619;51.472;6.628;2022-11-20T06:58:09;6.20;91.80
1259;DHT22;619;51.472;6.628;2022-11-20T07:00:35;6.20;91.80
1259;DHT22;619;51.472;6.628;2022-11-20T07:03:07;6.20;91.90
1259;DHT22;619;51.472;6.628;2022-11-20T07:05:34;6.30;91.90
1259;DHT22;619;51.472;6.628;2022-11-20T07:08:00;6.30;91.90
1259;DHT22;619;51.472;6.628;2022-11-20T07:10:28;6.30;91.80
1259;DHT22;619;51.472;6.628;2022-11-20T07:12:58;6.30;91.70
1259;DHT22;619;51.472;6.628;2022-11-20T07:15:26;6.30;91.70
1259;DHT22;619;51.472;6.628;2022-11-20T07:17:52;6.30;91.70
1259;DHT22;619;51.472;6.628;2022-11-20T07:20:20;6.30;91.80
1259;DHT22;619;51.472;6.628;2022-11-20T07:22:46;6.20;91.80
1259;DHT22;619;51.472;6.628;2022-11-20T07:25:11;6.20;91.90
1259;DHT22;619;51.472;6.628;2022-11-20T07:27:39;6.20;92.00
1259;DHT22;619;51.472;6.628;2022-11-20T07:30:07;6.30;92.10
1259;DHT22;619;51.472;6.628;2022-11-20T07:32:33;6.30;92.20
1259;DHT22;619;51.472;6.628;2022-11-20T07:34:58;6.40;92.20
1259;DHT22;619;51.472;6.628;2022-11-20T07:37:26;6.40;92.20
1259;DHT22;619;51.472;6.628;2022-11-20T07:39:52;6.50;92.20
1259;DHT22;619;51.472;6.628;2022-11-20T07:42:17;6.50;92.10
1259;DHT22;619;51.472;6.628;2022-11-20T07:44:43;6.60;92.00
1259;DHT22;619;51.472;6.628;2022-11-20T07:47:11;6.60;92.00
1259;DHT22;619;51.472;6.628;2022-11-20T07:49:37;6.70;91.90
1259;DHT22;619;51.472;6.628;2022-11-20T07:52:02;6.70;91.80
1259;DHT22;619;51.472;6.628;2022-11-20T07:54:28;6.80;91.80
1259;DHT22;619;51.472;6.628;2022-11-20T07:56:54;6.80;91.70
1259;DHT22;619;51.472;6.628;2022-11-20T07:59:19;6.80;91.50
1259;DHT22;619;51.472;6.628;2022-11-20T08:01:47;6.90;91.60
1259;DHT22;619;51.472;6.628;2022-11-20T08:04:13;6.90;91.60
1259;DHT22;619;51.472;6.628;2022-11-20T08:06:42;6.90;91.60
1259;DHT22;619;51.472;6.628;2022-11-20T08:09:08;7.00;91.50
1259;DHT22;619;51.472;6.628;2022-11-20T08:11:34;7.00;91.40
1259;DHT22;619;51.472;6.628;2022-11-20T08:14:18;7.10;91.30
1259;DHT22;619;51.472;6.628;2022-11-20T08:16:46;7.10;91.30
1259;DHT22;619;51.472;6.628;2022-11-20T08:19:13;7.10;91.30
1259;DHT22;619;51.472;6.628;2022-11-20T08:21:44;7.20;91.40
1259;DHT22;619;51.472;6.628;2022-11-20T08:24:12;7.20;91.70
1259;DHT22;619;51.472;6.628;2022-11-20T08:26:40;7.30;91.40
1259;DHT22;619;51.472;6.628;2022-11-20T08:29:10;7.30;91.40
1259;DHT22;619;51.472;6.628;2022-11-20T08:31:36;7.40;91.30
1259;DHT22;619;51.472;6.628;2022-11-20T08:34:01;7.50;91.30
1259;DHT22;619;51.472;6.628;2022-11-20T08:36:33;7.60;91.30
1259;DHT22;619;51.472;6.628;2022-11-20T08:39:02;7.70;91.20
1259;DHT22;619;51.472;6.628;2022-11-20T08:41:29;7.70;91.20
1259;DHT22;619;51.472;6.628;2022-11-20T08:44:03;7.80;91.20
1259;DHT22;619;51.472;6.628;2022-11-20T08:46:47;7.90;91.20
1259;DHT22;619;51.472;6.628;2022-11-20T08:49:13;8.10;91.10
1259;DHT22;619;51.472;6.628;2022-11-20T08:51:39;8.20;90.80
1259;DHT22;619;51.472;6.628;2022-11-20T08:54:06;8.30;90.70
1259;DHT22;619;51.472;6.628;2022-11-20T08:56:36;8.30;90.80
1259;DHT22;619;51.472;6.628;2022-11-20T08:59:02;8.40;90.70
1259;DHT22;619;51.472;6.628;2022-11-20T09:01:30;8.50;90.60
1259;DHT22;619;51.472;6.628;2022-11-20T09:03:56;8.60;90.50
1259;DHT22;619;51.472;6.628;2022-11-20T09:06:27;8.70;90.50
1259;DHT22;619;51.472;6.628;2022-11-20T09:08:55;8.80;90.50
1259;DHT22;619;51.472;6.628;2022-11-20T09:11:22;8.90;90.50
1259;DHT22;619;51.472;6.628;2022-11-20T09:13:50;9.00;90.40
1259;DHT22;619;51.472;6.628;2022-11-20T09:16:15;9.10;90.30
1259;DHT22;619;51.472;6.628;2022-11-20T09:18:43;9.10;90.10
1259;DHT22;619;51.472;6.628;2022-11-20T09:21:10;9.20;90.00
1259;DHT22;619;51.472;6.628;2022-11-20T09:23:38;9.20;90.00
1259;DHT22;619;51.472;6.628;2022-11-20T09:26:06;9.30;90.10
1259;DHT22;619;51.472;6.628;2022-11-20T09:28:34;9.30;90.00
1259;DHT22;619;51.472;6.628;2022-11-20T09:31:00;9.40;89.90
1259;DHT22;619;51.472;6.628;2022-11-20T09:33:26;9.40;89.40
1259;DHT22;619;51.472;6.628;2022-11-20T09:35:51;9.40;89.00
1259;DHT22;619;51.472;6.628;2022-11-20T09:38:17;9.50;89.00
1259;DHT22;619;51.472;6.628;2022-11-20T09:41:04;9.40;88.80
1259;DHT22;619;51.472;6.628;2022-11-20T09:46:36;9.40;88.60
1259;DHT22;619;51.472;6.628;2022-11-20T09:51:53;9.40;88.40
1259;DHT22;619;51.472;6.628;2022-11-20T09:54:36;9.40;88.60
1259;DHT22;619;51.472;6.628;2022-11-20T09:57:12;9.40;88.90
1259;DHT22;619;51.472;6.628;2022-11-20T09:59:43;9.40;89.00
1259;DHT22;619;51.472;6.628;2022-11-20T10:02:26;9.50;89.20
1259;DHT22;619;51.472;6.628;2022-11-20T10:05:12;9.50;89.30
1259;DHT22;619;51.472;6.628;2022-11-20T10:07:54;9.60;89.50
1259;DHT22;619;51.472;6.628;2022-11-20T10:10:50;9.60;89.40
1259;DHT22;619;51.472;6.628;2022-11-20T10:13:20;9.80;89.70
1259;DHT22;619;51.472;6.628;2022-11-20T10:19:02;9.90;89.50
1259;DHT22;619;51.472;6.628;2022-11-20T10:29:36;10.40;87.70
1259;DHT22;619;51.472;6.628;2022-11-20T10:32:09;10.50;87.70
1259;DHT22;619;51.472;6.628;2022-11-20T10:34:57;10.60;87.70
1259;DHT22;619;51.472;6.628;2022-11-20T10:37:28;10.70;87.40
1259;DHT22;619;51.472;6.628;2022-11-20T10:42:55;11.00;87.60
1259;DHT22;619;51.472;6.628;2022-11-20T10:48:16;11.10;86.30
1259;DHT22;619;51.472;6.628;2022-11-20T10:54:01;11.20;86.50
1259;DHT22;619;51.472;6.628;2022-11-20T11:01:54;11.40;86.10
1259;DHT22;619;51.472;6.628;2022-11-20T11:04:37;11.40;86.00
1259;DHT22;619;51.472;6.628;2022-11-20T11:09:53;11.50;85.90
1259;DHT22;619;51.472;6.628;2022-11-20T11:12:25;11.50;85.90
1259;DHT22;619;51.472;6.628;2022-11-20T11:14:53;11.50;85.90
1259;DHT22;619;51.472;6.628;2022-11-20T11:20:14;11.50;86.10
1259;DHT22;619;51.472;6.628;2022-11-20T11:23:10;11.40;85.80
1259;DHT22;619;51.472;6.628;2022-11-20T11:25:57;11.40;86.20
1259;DHT22;619;51.472;6.628;2022-11-20T11:28:25;11.40;86.30
1259;DHT22;619;51.472;6.628;2022-11-20T11:30:55;11.30;86.50
1259;DHT22;619;51.472;6.628;2022-11-20T11:33:24;11.30;86.80
1259;DHT22;619;51.472;6.628;2022-11-20T11:36:00;11.30;86.90
1259;DHT22;619;51.472;6.628;2022-11-20T11:40:57;11.30;87.10
1259;DHT22;619;51.472;6.628;2022-11-20T11:43:28;11.30;87.30
1259;DHT22;619;51.472;6.628;2022-11-20T11:48:57;11.40;87.60
1259;DHT22;619;51.472;6.628;2022-11-20T11:51:46;11.40;87.50
1259;DHT22;619;51.472;6.628;2022-11-20T11:54:23;11.40;87.70
1259;DHT22;619;51.472;6.628;2022-11-20T11:56:54;11.40;87.60
1259;DHT22;619;51.472;6.628;2022-11-20T11:59:47;11.40;87.60
1259;DHT22;619;51.472;6.628;2022-11-20T12:02:37;11.40;87.50
1259;DHT22;619;51.472;6.628;2022-11-20T12:05:45;11.40;87.60
1259;DHT22;619;51.472;6.628;2022-11-20T12:11:16;11.40;87.80
1259;DHT22;619;51.472;6.628;2022-11-20T12:16:25;11.40;87.80
1259;DHT22;619;51.472;6.628;2022-11-20T12:18:58;11.40;87.80
1259;DHT22;619;51.472;6.628;2022-11-20T12:21:33;11.40;87.90
1259;DHT22;619;51.472;6.628;2022-11-20T12:39:55;11.70;87.20
1259;DHT22;619;51.472;6.628;2022-11-20T12:42:47;11.80;86.90
1259;DHT22;619;51.472;6.628;2022-11-20T12:51:59;11.90;86.40
1259;DHT22;619;51.472;6.628;2022-11-20T12:54:39;11.90;86.20
1259;DHT22;619;51.472;6.628;2022-11-20T13:08:18;11.80;86.10
1259;DHT22;619;51.472;6.628;2022-11-20T13:16:07;11.80;87.40
1259;DHT22;619;51.472;6.628;2022-11-20T13:18:39;11.70;87.90
1259;DHT22;619;51.472;6.628;2022-11-20T13:21:18;11.70;87.70
1259;DHT22;619;51.472;6.628;2022-11-20T13:23:46;11.70;88.30
1259;DHT22;619;51.472;6.628;2022-11-20T13:26:22;11.60;88.60
1259;DHT22;619;51.472;6.628;2022-11-20T13:31:35;11.50;89.30
1259;DHT22;619;51.472;6.628;2022-11-20T13:34:04;11.50;89.40
1259;DHT22;619;51.472;6.628;2022-11-20T13:36:33;11.40;89.50
1259;DHT22;619;51.472;6.628;2022-11-20T13:39:00;11.30;89.70
1259;DHT22;619;51.472;6.628;2022-11-20T13:41:29;11.30;90.00
1259;DHT22;619;51.472;6.628;2022-11-20T13:46:40;11.20;90.40
1259;DHT22;619;51.472;6.628;2022-11-20T13:49:15;11.20;90.50
1259;DHT22;619;51.472;6.628;2022-11-20T13:51:48;11.20;90.70
1259;DHT22;619;51.472;6.628;2022-11-20T14:00:03;11.10;90.90
1259;DHT22;619;51.472;6.628;2022-11-20T14:02:34;11.10;91.10
1259;DHT22;619;51.472;6.628;2022-11-20T14:05:03;11.10;91.10
1259;DHT22;619;51.472;6.628;2022-11-20T14:07:37;11.10;91.10
1259;DHT22;619;51.472;6.628;2022-11-20T14:10:05;11.10;91.10
1259;DHT22;619;51.472;6.628;2022-11-20T14:12:38;11.10;91.20
1259;DHT22;619;51.472;6.628;2022-11-20T14:15:32;11.10;91.40
1259;DHT22;619;51.472;6.628;2022-11-20T14:18:10;11.10;91.40
1259;DHT22;619;51.472;6.628;2022-11-20T14:20:38;11.00;91.40
1259;DHT22;619;51.472;6.628;2022-11-20T14:23:09;11.00;91.40
1259;DHT22;619;51.472;6.628;2022-11-20T14:25:37;11.00;91.60
1259;DHT22;619;51.472;6.628;2022-11-20T14:28:17;11.00;91.60
1259;DHT22;619;51.472;6.628;2022-11-20T14:30:48;11.00;91.70
1259;DHT22;619;51.472;6.628;2022-11-20T14:33:15;11.00;91.70
1259;DHT22;619;51.472;6.628;2022-11-20T14:35:49;11.00;91.70
1259;DHT22;619;51.472;6.628;2022-11-20T14:38:22;10.90;91.70
1259;DHT22;619;51.472;6.628;2022-11-20T14:40:49;10.90;91.80
1259;DHT22;619;51.472;6.628;2022-11-20T14:43:22;10.90;91.90
1259;DHT22;619;51.472;6.628;2022-11-20T22:41:22;4.90;99.90
1259;DHT22;619;51.472;6.628;2022-11-20T22:43:59;5.00;99.90
1259;DHT22;619;51.472;6.628;2022-11-20T22:46:26;5.70;99.90
1259;DHT22;619;51.472;6.628;2022-11-20T22:51:20;7.30;99.90
1259;DHT22;619;51.472;6.628;2022-11-20T22:53:48;8.10;99.90
1259;DHT22;619;51.472;6.628;2022-11-20T22:56:17;8.80;99.90
1259;DHT22;619;51.472;6.628;2022-11-20T22:58:48;9.30;99.90
1259;DHT22;619;51.472;6.628;2022-11-20T23:11:23;10.90;99.90
1259;DHT22;619;51.472;6.628;2022-11-20T23:14:00;11.00;99.90
1259;DHT22;619;51.472;6.628;2022-11-20T23:16:30;11.00;99.90
1259;DHT22;619;51.472;6.628;2022-11-20T23:18:59;11.00;99.90
1259;DHT22;619;51.472;6.628;2022-11-20T23:21:25;11.10;99.50
1259;DHT22;619;51.472;6.628;2022-11-20T23:23:54;11.00;98.90
1259;DHT22;619;51.472;6.628;2022-11-20T23:26:22;11.10;98.90
1259;DHT22;619;51.472;6.628;2022-11-20T23:28:48;11.10;98.50
1259;DHT22;619;51.472;6.628;2022-11-20T23:31:17;11.10;98.40
1259;DHT22;619;51.472;6.628;2022-11-20T23:33:44;11.10;98.10
1259;DHT22;619;51.472;6.628;2022-11-20T23:36:10;11.20;97.90
1259;DHT22;619;51.472;6.628;2022-11-20T23:38:39;11.20;97.70
1259;DHT22;619;51.472;6.628;2022-11-20T23:41:05;11.20;97.60
1259;DHT22;619;51.472;6.628;2022-11-20T23:43:32;11.30;97.30
1259;DHT22;619;51.472;6.628;2022-11-20T23:46:03;11.30;97.10
1259;DHT22;619;51.472;6.628;2022-11-20T23:48:34;11.40;97.00
1259;DHT22;619;51.472;6.628;2022-11-20T23:51:06;11.40;96.70
1259;DHT22;619;51.472;6.628;2022-11-20T23:53:32;11.40;96.60
1259;DHT22;619;51.472;6.628;2022-11-20T23:56:02;11.40;96.30
1259;DHT22;619;51.472;6.628;2022-11-20T23:58:37;11.40;96.30
